Time;durP1;ratioP1;P1;durP2;ratioP2;P2;SDS_P1;SDS_P2;PMS_P1;PMS_P2;Temp;Humidity;BMP_temperature;BMP_pressure;BME280_temperature;BME280_humidity;BME280_pressure;Samples;Min_cycle;Max_cycle;Signal;HPM_P1;HPM_P2
2022/11/29 00:01:41;;;;;;;9.05;8.25;;;;;;;7.65;100.00;98312.28;4206907;28;20677;-45
2022/11/29 00:03:43;;;;;;;6.85;6.13;;;;;;;7.66;100.00;98310.38;4184505;28;20652;-46
2022/11/29 00:05:45;;;;;;;6.30;5.65;;;;;;;7.67;100.00;98306.56;4223215;28;20236;-46
2022/11/29 00:07:47;;;;;;;7.78;7.18;;;;;;;7.66;100.00;98315.81;4207401;28;20290;-45
2022/11/29 00:09:49;;;;;;;7.72;7.00;;;;;;;7.67;100.00;98314.75;4203475;28;20199;-45
2022/11/29 00:14:13;;;;;;;7.63;6.82;;;;;;;7.69;100.00;98318.88;4203643;28;20222;-45
2022/11/29 00:16:15;;;;;;;6.60;6.00;;;;;;;7.68;100.00;98316.41;4204318;28;20214;-44
2022/11/29 00:18:17;;;;;;;7.53;6.85;;;;;;;7.70;100.00;98314.28;4204877;28;20351;-45
2022/11/29 00:20:18;;;;;;;8.90;8.02;;;;;;;7.69;100.00;98323.53;4205213;28;20238;-45
2022/11/29 00:22:22;;;;;;;7.13;6.53;;;;;;;7.69;100.00;98320.81;4208160;28;20281;-46
2022/11/29 00:24:24;;;;;;;7.13;6.50;;;;;;;7.66;100.00;98318.53;4205232;28;20321;-46
2022/11/29 00:26:26;;;;;;;7.65;6.95;;;;;;;7.70;100.00;98320.53;4206089;28;20203;-45
2022/11/29 00:28:27;;;;;;;6.50;6.00;;;;;;;7.71;100.00;98321.38;4206497;28;20207;-46
2022/11/29 00:30:29;;;;;;;7.35;6.75;;;;;;;7.68;100.00;98324.59;4207409;28;20202;-46
2022/11/29 00:32:31;;;;;;;8.10;7.40;;;;;;;7.68;100.00;98322.69;4205586;28;20237;-45
2022/11/29 00:34:33;;;;;;;8.77;8.00;;;;;;;7.63;100.00;98330.72;4199714;28;20230;-46
2022/11/29 00:36:35;;;;;;;7.35;6.65;;;;;;;7.66;100.00;98329.41;4188621;28;20717;-47
2022/11/29 00:38:37;;;;;;;7.88;7.18;;;;;;;7.67;100.00;98333.81;4202687;28;20241;-45
2022/11/29 00:40:38;;;;;;;9.65;8.75;;;;;;;7.64;100.00;98331.56;4203195;28;20246;-46
2022/11/29 00:42:40;;;;;;;7.82;7.03;;;;;;;7.77;100.00;98325.88;4204596;28;20299;-46
2022/11/29 00:44:42;;;;;;;7.18;6.57;;;;;;;7.68;100.00;98324.59;4206786;28;20647;-46
2022/11/29 00:46:44;;;;;;;7.97;7.22;;;;;;;7.80;100.00;98325.41;4204245;28;20729;-45
2022/11/29 00:48:46;;;;;;;8.15;7.45;;;;;;;7.72;100.00;98320.31;4203398;28;20572;-45
2022/11/29 00:50:47;;;;;;;8.88;8.00;;;;;;;7.70;100.00;98336.06;4203369;28;20205;-47
2022/11/29 00:52:49;;;;;;;7.72;7.07;;;;;;;7.71;100.00;98324.09;4188354;28;20309;-45
2022/11/29 00:54:51;;;;;;;7.57;6.97;;;;;;;7.67;100.00;98328.34;4206332;28;20256;-46
2022/11/29 00:56:53;;;;;;;7.72;6.93;;;;;;;7.65;100.00;98338.66;4202714;28;20242;-47
2022/11/29 00:58:55;;;;;;;8.05;7.35;;;;;;;7.64;100.00;98331.56;4222406;28;20291;-45
2022/11/29 01:00:57;;;;;;;7.82;7.13;;;;;;;7.63;100.00;98332.63;4221446;28;20230;-45
2022/11/29 01:02:58;;;;;;;7.30;6.57;;;;;;;7.63;100.00;98338.06;4207137;28;20218;-46
2022/11/29 01:05:00;;;;;;;5.97;5.47;;;;;;;7.67;100.00;98341.97;4220548;28;20389;-45
2022/11/29 01:07:02;;;;;;;7.35;6.70;;;;;;;7.62;100.00;98339.97;4202523;28;20222;-45
2022/11/29 01:09:04;;;;;;;6.88;6.28;;;;;;;7.63;100.00;98341.59;4206747;28;20758;-46
2022/11/29 01:11:12;;;;;;;8.10;7.40;;;;;;;7.66;100.00;98340.31;4201077;28;20211;-46
2022/11/29 01:13:14;;;;;;;6.18;5.57;;;;;;;7.65;100.00;98342.22;4202765;28;20747;-46
2022/11/29 01:15:16;;;;;;;6.78;6.18;;;;;;;7.77;100.00;98342.22;4188009;28;20239;-46
2022/11/29 01:17:17;;;;;;;7.13;6.50;;;;;;;7.64;100.00;98345.19;4188098;28;20287;-45
2022/11/29 01:19:19;;;;;;;9.63;7.47;;;;;;;7.61;100.00;98349.19;4205580;28;20211;-46
2022/11/29 01:21:22;;;;;;;7.45;6.75;;;;;;;7.72;100.00;98342.94;4204083;28;20253;-44
2022/11/29 01:23:25;;;;;;;7.05;6.32;;;;;;;7.65;100.00;98344.09;4223219;28;20691;-46
2022/11/29 01:25:28;;;;;;;7.60;7.00;;;;;;;7.65;100.00;98344.09;4203679;28;20728;-45
2022/11/29 01:27:30;;;;;;;8.38;7.57;;;;;;;7.63;100.00;98348.97;4204659;28;20569;-45
2022/11/29 01:29:32;;;;;;;7.93;7.32;;;;;;;7.65;100.00;98344.09;4201943;28;20200;-46
2022/11/29 01:31:37;;;;;;;6.90;6.28;;;;;;;7.68;100.00;98340.94;4188164;28;20246;-45
2022/11/29 01:33:39;;;;;;;7.40;6.78;;;;;;;7.67;100.00;98347.41;4221084;28;20292;-45
2022/11/29 01:35:49;;;;;;;5.85;5.35;;;;;;;7.71;100.00;98348.63;4201671;28;20250;-45
2022/11/29 01:37:51;;;;;;;13.00;7.63;;;;;;;7.67;100.00;98352.88;4221208;28;20310;-45
2022/11/29 01:39:53;;;;;;;7.25;6.55;;;;;;;7.67;100.00;98350.13;4201270;28;20223;-46
2022/11/29 01:41:55;;;;;;;6.93;6.32;;;;;;;7.72;100.00;98361.16;4204957;28;20246;-46
2022/11/29 01:44:06;;;;;;;7.72;6.97;;;;;;;7.68;100.00;98360.00;4201913;28;20231;-45
2022/11/29 01:46:10;;;;;;;7.00;6.40;;;;;;;7.65;100.00;98360.44;4207066;28;20577;-46
2022/11/29 01:48:12;;;;;;;7.70;7.07;;;;;;;7.67;100.00;98361.88;4208246;28;20209;-45
2022/11/29 01:50:14;;;;;;;6.03;5.53;;;;;;;7.66;100.00;98359.38;4207869;28;20336;-46
2022/11/29 01:52:27;;;;;;;7.15;6.55;;;;;;;7.63;100.00;98362.59;4207999;28;20309;-45
2022/11/29 01:54:31;;;;;;;7.72;6.85;;;;;;;7.67;100.00;98361.03;4207990;28;20261;-46
2022/11/29 01:56:34;;;;;;;8.43;7.63;;;;;;;7.66;100.00;98367.53;4222147;28;20310;-46
2022/11/29 01:58:35;;;;;;;6.60;5.97;;;;;;;7.64;100.00;98364.25;4205561;28;20305;-46
2022/11/29 02:00:37;;;;;;;7.68;6.95;;;;;;;7.76;100.00;98362.34;4187635;28;20246;-46
2022/11/29 02:02:51;;;;;;;7.72;6.90;;;;;;;7.70;100.00;98358.66;4201564;28;20238;-45
2022/11/29 02:04:53;;;;;;;8.32;7.63;;;;;;;7.73;100.00;98365.53;4205729;28;20234;-45
2022/11/29 02:06:55;;;;;;;7.28;6.57;;;;;;;7.71;100.00;98362.22;4188136;28;20226;-45
2022/11/29 02:08:56;;;;;;;8.57;7.88;;;;;;;7.71;100.00;98360.34;4204229;28;20808;-45
2022/11/29 02:11:15;;;;;;;7.85;7.05;;;;;;;7.73;100.00;98357.38;4204519;28;20214;-45
2022/11/29 02:13:31;;;;;;;7.18;6.47;;;;;;;7.67;100.00;98353.72;4206791;28;20731;-45
2022/11/29 02:16:08;;;;;;;6.88;6.10;;;;;;;7.63;100.00;98357.13;4205044;28;20229;-46
2022/11/29 02:18:36;;;;;;;7.93;7.32;;;;;;;7.68;100.00;98354.53;4204285;28;20261;-45
2022/11/29 02:21:08;;;;;;;6.97;6.35;;;;;;;7.60;100.00;98352.16;4204348;28;20242;-45
2022/11/29 02:23:25;;;;;;;8.23;7.43;;;;;;;7.61;100.00;98348.38;4201264;28;20782;-45
2022/11/29 02:26:01;;;;;;;9.02;8.18;;;;;;;7.63;100.00;98351.69;4204499;28;20660;-45
2022/11/29 02:28:31;;;;;;;7.88;7.18;;;;;;;7.64;100.00;98353.34;4207220;28;20214;-45
2022/11/29 02:31:11;;;;;;;8.00;7.28;;;;;;;7.59;100.00;98355.94;4200795;28;20293;-45
2022/11/29 02:33:21;;;;;;;7.45;6.78;;;;;;;7.59;100.00;98361.38;4206388;28;20198;-45
2022/11/29 02:35:32;;;;;;;7.43;6.53;;;;;;;7.58;100.00;98355.13;4203176;28;20230;-45
2022/11/29 02:37:43;;;;;;;7.55;6.88;;;;;;;7.58;100.00;98370.63;4203981;28;20301;-45
2022/11/29 02:40:07;;;;;;;7.82;7.13;;;;;;;7.57;100.00;98360.78;4204874;28;20293;-45
2022/11/29 02:42:47;;;;;;;7.50;6.88;;;;;;;7.57;100.00;98363.53;4204908;28;20199;-45
2022/11/29 02:45:22;;;;;;;8.60;7.90;;;;;;;7.60;100.00;98358.44;4208504;28;20222;-45
2022/11/29 02:47:28;;;;;;;8.63;7.82;;;;;;;7.58;100.00;98366.03;4194881;28;20268;-45
2022/11/29 02:49:40;;;;;;;10.88;8.27;;;;;;;7.56;100.00;98361.88;4204052;28;20203;-44
2022/11/29 02:51:51;;;;;;;8.05;6.60;;;;;;;7.56;100.00;98370.03;4204669;28;20206;-46
2022/11/29 02:54:02;;;;;;;8.15;7.55;;;;;;;7.57;100.00;98372.50;4182914;28;20230;-45
2022/11/29 02:56:28;;;;;;;7.88;7.20;;;;;;;7.55;100.00;98371.09;4207390;28;20234;-45
2022/11/29 02:58:39;;;;;;;7.72;7.03;;;;;;;7.59;100.00;98372.28;4205504;28;20271;-46
2022/11/29 03:00:49;;;;;;;9.32;8.63;;;;;;;7.57;100.00;98371.69;4206709;28;20202;-45
2022/11/29 03:03:20;;;;;;;7.70;7.05;;;;;;;7.58;100.00;98365.19;4198567;28;20202;-45
2022/11/29 03:05:40;;;;;;;7.40;6.70;;;;;;;7.61;100.00;98372.88;4191042;28;20235;-45
2022/11/29 03:08:04;;;;;;;7.47;6.85;;;;;;;7.67;100.00;98378.22;4208732;28;20239;-45
2022/11/29 03:11:02;;;;;;;7.32;6.63;;;;;;;7.60;100.00;98376.66;4220070;28;20672;-46
2022/11/29 03:13:09;;;;;;;6.78;6.28;;;;;;;7.59;100.00;98377.72;4166293;28;20258;-45
2022/11/29 03:15:26;;;;;;;7.80;7.18;;;;;;;7.61;100.00;98381.06;4152840;28;20315;-45
2022/11/29 03:18:00;;;;;;;7.72;7.13;;;;;;;7.59;100.00;98381.28;4165666;28;20207;-45
2022/11/29 03:20:02;;;;;;;7.47;6.88;;;;;;;7.57;100.00;98382.56;4220002;28;20818;-45
2022/11/29 03:22:23;;;;;;;7.43;6.72;;;;;;;7.55;100.00;98388.25;4222357;28;20277;-45
2022/11/29 03:24:33;;;;;;;6.85;6.25;;;;;;;7.60;100.00;98387.53;4198813;28;20309;-45
2022/11/29 03:26:41;;;;;;;7.75;6.63;;;;;;;7.59;100.00;98383.16;4202635;28;20242;-45
2022/11/29 03:29:06;;;;;;;6.68;6.15;;;;;;;7.60;100.00;98388.38;4199696;28;20969;-45
2022/11/29 03:31:12;;;;;;;7.63;6.97;;;;;;;7.66;100.00;98383.88;4209507;28;20194;-44
2022/11/29 03:33:29;;;;;;;7.53;6.82;;;;;;;7.60;100.00;98388.38;4205410;28;20210;-45
2022/11/29 03:35:41;;;;;;;6.40;5.80;;;;;;;7.54;100.00;98381.16;4205596;28;20320;-46
2022/11/29 03:38:01;;;;;;;6.90;6.30;;;;;;;7.59;100.00;98383.16;4209877;28;20238;-44
2022/11/29 03:40:16;;;;;;;7.22;6.55;;;;;;;7.53;100.00;98389.53;4213895;28;20892;-45
2022/11/29 03:42:50;;;;;;;6.85;6.15;;;;;;;7.67;100.00;98385.53;4201642;28;20261;-46
2022/11/29 03:44:56;;;;;;;8.02;7.32;;;;;;;7.57;100.00;98386.13;4172629;28;20280;-46
2022/11/29 03:47:14;;;;;;;7.22;6.53;;;;;;;7.55;100.00;98387.44;4204536;28;20305;-45
2022/11/29 03:49:24;;;;;;;6.15;5.65;;;;;;;7.62;100.00;98393.59;4192447;28;20646;-45
2022/11/29 03:51:50;;;;;;;7.85;7.20;;;;;;;7.52;100.00;98394.19;4211334;28;20567;-45
2022/11/29 03:54:07;;;;;;;6.55;5.85;;;;;;;7.47;100.00;98385.88;4214560;28;20785;-45
2022/11/29 03:56:41;;;;;;;8.23;7.47;;;;;;;7.46;100.00;98391.53;4206126;28;20238;-45
2022/11/29 03:58:54;;;;;;;6.65;5.90;;;;;;;7.45;100.00;98392.59;4182392;28;20305;-45
2022/11/29 04:01:11;;;;;;;7.13;6.43;;;;;;;7.45;100.00;98392.59;4205885;28;20325;-45
2022/11/29 04:03:46;;;;;;;6.55;6.05;;;;;;;7.45;100.00;98388.00;4212986;28;20664;-45
2022/11/29 04:06:36;;;;;;;6.53;6.03;;;;;;;7.46;100.00;98394.25;4205639;28;20229;-45
2022/11/29 04:08:56;;;;;;;6.60;6.10;;;;;;;7.59;100.00;98388.59;4208034;28;20644;-45
2022/11/29 04:11:10;;;;;;;6.32;5.80;;;;;;;7.45;100.00;98387.16;4205634;28;20711;-46
2022/11/29 04:13:36;;;;;;;6.65;6.15;;;;;;;7.42;100.00;98393.09;4192017;28;20253;-45
2022/11/29 04:16:03;;;;;;;6.15;5.55;;;;;;;7.36;100.00;98394.00;4204864;28;20223;-46
2022/11/29 04:18:19;;;;;;;7.57;6.97;;;;;;;7.33;100.00;98397.19;4208208;28;20289;-45
2022/11/29 04:20:59;;;;;;;4.68;4.28;;;;;;;7.32;100.00;98404.53;4204945;28;20755;-45
2022/11/29 04:23:34;;;;;;;6.32;5.72;;;;;;;7.30;100.00;98405.81;4207560;28;20527;-45
2022/11/29 04:25:58;;;;;;;4.90;4.50;;;;;;;7.33;100.00;98405.34;4208047;28;20695;-45
2022/11/29 04:28:58;;;;;;;5.97;5.57;;;;;;;7.27;100.00;98403.56;4205804;28;20195;-44
2022/11/29 04:31:31;;;;;;;6.45;6.03;;;;;;;7.35;100.00;98411.41;4175799;28;20249;-44
2022/11/29 04:33:50;;;;;;;5.75;5.25;;;;;;;7.27;100.00;98406.28;4209969;28;20206;-45
2022/11/29 04:36:27;;;;;;;6.65;6.05;;;;;;;7.28;100.00;98406.06;4205117;28;20266;-45
2022/11/29 04:38:50;;;;;;;7.10;6.40;;;;;;;7.22;100.00;98409.69;4205249;28;20206;-45
2022/11/29 04:41:13;;;;;;;8.27;7.57;;;;;;;7.20;100.00;98410.97;4206437;28;20214;-45
2022/11/29 04:43:45;;;;;;;5.97;5.38;;;;;;;7.18;100.00;98410.41;4204955;28;20230;-45
2022/11/29 04:46:07;;;;;;;5.20;4.80;;;;;;;7.13;100.00;98419.25;4205625;28;20253;-45
2022/11/29 04:48:09;;;;;;;5.07;4.68;;;;;;;7.07;100.00;98414.72;4204716;28;20214;-44
2022/11/29 04:50:20;;;;;;;6.63;6.13;;;;;;;7.10;100.00;98422.41;4206844;28;20206;-44
2022/11/29 04:52:33;;;;;;;5.57;5.18;;;;;;;7.09;100.00;98430.84;4206480;28;20303;-45
2022/11/29 04:54:46;;;;;;;6.55;6.05;;;;;;;7.05;100.00;98426.91;4204990;28;20249;-45
2022/11/29 04:56:55;;;;;;;5.95;5.45;;;;;;;7.03;100.00;98426.31;4190101;28;20736;-45
2022/11/29 04:59:12;;;;;;;6.90;6.03;;;;;;;7.04;100.00;98434.25;4207005;28;20202;-47
2022/11/29 05:01:20;;;;;;;5.90;5.40;;;;;;;7.08;100.00;98440.06;4189458;28;20231;-45
2022/11/29 05:03:48;;;;;;;4.68;4.28;;;;;;;7.03;100.00;98438.00;4217915;28;20210;-45
2022/11/29 05:06:17;;;;;;;4.85;4.40;;;;;;;6.99;100.00;98441.41;4203056;28;20238;-45
2022/11/29 05:08:43;;;;;;;6.13;5.60;;;;;;;6.97;100.00;98433.47;4190027;28;20298;-45
2022/11/29 05:11:39;;;;;;;5.68;5.05;;;;;;;7.02;100.00;98449.13;4206778;28;20812;-45
2022/11/29 05:14:18;;;;;;;5.72;5.22;;;;;;;6.95;100.00;98445.69;4156036;28;20240;-45
2022/11/29 05:16:44;;;;;;;6.65;6.13;;;;;;;6.89;100.00;98446.59;4196742;28;20202;-45
2022/11/29 05:19:20;;;;;;;5.93;5.10;;;;;;;6.86;100.00;98447.88;4204208;28;20207;-45
2022/11/29 05:21:41;;;;;;;5.70;5.30;;;;;;;6.84;100.00;98452.72;4203986;28;20301;-45
2022/11/29 05:23:57;;;;;;;5.32;4.82;;;;;;;6.80;100.00;98464.25;4203987;28;20826;-45
2022/11/29 05:26:14;;;;;;;5.75;4.93;;;;;;;6.78;100.00;98463.66;4204208;28;20306;-45
2022/11/29 05:28:32;;;;;;;6.00;5.50;;;;;;;6.75;100.00;98467.66;4204116;28;20290;-45
2022/11/29 05:30:43;;;;;;;5.78;5.28;;;;;;;6.72;100.00;98472.72;4204880;28;20237;-46
2022/11/29 05:32:57;;;;;;;6.03;5.43;;;;;;;6.73;100.00;98477.09;4206384;28;20277;-45
2022/11/29 05:35:22;;;;;;;7.05;6.38;;;;;;;6.69;100.00;98479.44;4198979;28;20222;-45
2022/11/29 05:37:37;;;;;;;6.82;6.22;;;;;;;6.69;100.00;98484.06;4203150;28;20245;-45
2022/11/29 05:39:50;;;;;;;4.95;4.55;;;;;;;6.70;100.00;98497.41;4204537;28;20261;-45
2022/11/29 05:42:18;;;;;;;6.20;5.07;;;;;;;6.73;100.00;98496.13;4202553;28;20241;-46
2022/11/29 05:44:36;;;;;;;5.07;4.68;;;;;;;6.71;100.00;98498.25;4209027;28;20398;-44
2022/11/29 05:46:57;;;;;;;5.57;5.15;;;;;;;6.78;100.00;98499.00;4206187;28;20198;-45
2022/11/29 05:49:21;;;;;;;4.40;4.10;;;;;;;6.73;100.00;98504.28;4203195;28;20289;-45
2022/11/29 05:51:28;;;;;;;5.53;5.00;;;;;;;6.72;100.00;98505.34;4204082;28;20300;-44
2022/11/29 05:53:39;;;;;;;4.88;4.47;;;;;;;6.70;100.00;98502.03;4201388;28;20293;-45
2022/11/29 05:55:54;;;;;;;5.45;5.03;;;;;;;6.72;100.00;98510.78;4207066;28;20678;-46
2022/11/29 05:57:59;;;;;;;6.47;4.05;;;;;;;6.72;100.00;98505.34;4207068;28;20237;-45
2022/11/29 06:00:04;;;;;;;4.32;3.92;;;;;;;6.72;100.00;98510.78;4204206;28;20257;-46
2022/11/29 06:02:43;;;;;;;5.35;4.85;;;;;;;6.74;100.00;98514.09;4208693;28;20275;-46
2022/11/29 06:05:02;;;;;;;3.72;3.42;;;;;;;6.75;100.00;98519.31;4204571;28;20317;-45
2022/11/29 06:07:22;;;;;;;4.57;4.18;;;;;;;6.85;100.00;98516.06;4202476;28;20982;-45
2022/11/29 06:09:30;;;;;;;4.65;4.32;;;;;;;6.81;100.00;98523.00;4193486;28;20310;-45
2022/11/29 06:11:49;;;;;;;4.32;3.92;;;;;;;6.83;100.00;98520.91;4197420;28;20232;-45
2022/11/29 06:14:33;;;;;;;4.30;3.95;;;;;;;6.88;100.00;98529.25;4197440;28;20215;-45
2022/11/29 06:16:46;;;;;;;10.77;5.03;;;;;;;6.91;100.00;98531.50;4200529;28;20211;-45
2022/11/29 06:19:10;;;;;;;5.95;5.45;;;;;;;6.90;100.00;98529.84;4206432;28;20273;-45
2022/11/29 06:21:37;;;;;;;8.25;7.32;;;;;;;6.86;100.00;98529.44;4200558;28;20199;-46
2022/11/29 06:23:47;;;;;;;9.05;8.23;;;;;;;6.86;100.00;98523.19;4199634;28;20213;-45
2022/11/29 06:26:07;;;;;;;7.15;5.93;;;;;;;6.88;100.00;98526.53;4221459;28;20228;-44
2022/11/29 06:28:27;;;;;;;7.25;6.35;;;;;;;6.95;100.00;98527.28;4202919;28;20297;-45
2022/11/29 06:30:55;;;;;;;9.02;8.07;;;;;;;6.86;100.00;98528.63;4207605;28;20707;-45
2022/11/29 06:33:11;;;;;;;7.20;6.50;;;;;;;6.91;100.00;98531.50;4208314;28;20213;-45
2022/11/29 06:35:35;;;;;;;7.03;6.35;;;;;;;6.75;100.00;98532.09;4184133;28;20231;-45
2022/11/29 06:37:48;;;;;;;9.10;6.53;;;;;;;6.77;100.00;98535.41;4202105;28;20206;-45
2022/11/29 06:39:50;;;;;;;7.47;6.78;;;;;;;6.76;100.00;98541.91;4207959;28;20226;-46
2022/11/29 06:41:52;;;;;;;6.10;5.60;;;;;;;6.75;100.00;98542.97;4202144;28;20245;-45
2022/11/29 06:43:54;;;;;;;6.25;5.68;;;;;;;6.78;100.00;98537.06;4185971;28;20203;-45
2022/11/29 06:46:03;;;;;;;7.18;6.47;;;;;;;6.76;100.00;98533.75;4203857;28;20573;-45
2022/11/29 06:48:06;;;;;;;6.80;6.22;;;;;;;6.75;100.00;98542.97;4205202;28;20236;-44
2022/11/29 06:50:30;;;;;;;7.60;6.85;;;;;;;6.78;100.00;98542.50;4198787;28;20195;-44
2022/11/29 06:52:57;;;;;;;7.93;7.03;;;;;;;6.80;100.00;98540.38;4191182;28;20199;-45
2022/11/29 06:55:21;;;;;;;6.60;6.00;;;;;;;6.82;100.00;98543.75;4218741;28;20218;-45
2022/11/29 06:57:30;;;;;;;5.90;5.40;;;;;;;6.83;100.00;98548.13;4206132;28;20206;-45
2022/11/29 06:59:41;;;;;;;5.30;4.80;;;;;;;6.85;100.00;98548.72;4203693;28;20720;-45
2022/11/29 07:01:47;;;;;;;6.05;5.50;;;;;;;6.85;100.00;98559.59;4206120;28;21007;-45
2022/11/29 07:04:11;;;;;;;6.05;5.55;;;;;;;6.85;100.00;98554.16;4207189;28;22095;-45
2022/11/29 07:06:26;;;;;;;5.70;5.25;;;;;;;6.86;100.00;98556.66;4201377;28;20207;-46
2022/11/29 07:08:28;;;;;;;6.22;5.72;;;;;;;6.85;100.00;98559.59;4186591;28;20215;-45
2022/11/29 07:10:33;;;;;;;6.15;5.65;;;;;;;6.86;100.00;98561.25;4203717;28;20207;-45
2022/11/29 07:12:36;;;;;;;6.40;5.90;;;;;;;6.90;100.00;98562.47;4201345;28;20215;-45
2022/11/29 07:14:39;;;;;;;6.53;5.93;;;;;;;6.86;100.00;98555.81;4191316;28;20747;-45
2022/11/29 07:17:13;;;;;;;5.07;4.68;;;;;;;6.86;100.00;98561.25;4203701;28;20289;-45
2022/11/29 07:19:29;;;;;;;6.40;5.72;;;;;;;6.87;100.00;98566.47;4162366;28;20211;-45
2022/11/29 07:21:47;;;;;;;6.60;5.78;;;;;;;6.92;100.00;98561.19;4195436;28;20234;-45
2022/11/29 07:24:04;;;;;;;5.72;5.32;;;;;;;6.90;100.00;98559.75;4198976;28;20302;-45
2022/11/29 07:26:38;;;;;;;7.20;6.50;;;;;;;6.87;100.00;98565.63;4196620;28;20295;-45
2022/11/29 07:28:46;;;;;;;6.72;6.07;;;;;;;6.87;100.00;98568.34;4175362;28;20595;-45
2022/11/29 07:31:02;;;;;;;7.60;6.90;;;;;;;6.88;100.00;98576.28;4204695;28;20202;-47
2022/11/29 07:33:14;;;;;;;7.15;6.45;;;;;;;6.85;100.00;98563.16;4206430;28;20215;-44
2022/11/29 07:35:48;;;;;;;9.05;8.15;;;;;;;6.85;100.00;98576.75;4208234;28;20241;-44
2022/11/29 07:38:15;;;;;;;7.22;6.47;;;;;;;7.02;100.00;98577.00;4194425;28;20298;-45
2022/11/29 07:40:40;;;;;;;8.95;8.05;;;;;;;6.86;100.00;98572.13;4206322;28;20287;-45
2022/11/29 07:42:42;;;;;;;8.40;7.60;;;;;;;7.01;100.00;98580.75;4208788;28;20206;-45
2022/11/29 07:44:53;;;;;;;10.07;9.07;;;;;;;6.92;100.00;98571.22;4207313;28;20777;-45
2022/11/29 07:46:55;;;;;;;10.27;7.80;;;;;;;6.91;100.00;98575.84;4203367;28;20216;-45
2022/11/29 07:48:57;;;;;;;9.95;8.95;;;;;;;6.96;100.00;98577.91;4188292;28;20210;-45
2022/11/29 07:50:59;;;;;;;9.38;8.57;;;;;;;7.03;100.00;98584.91;4200031;28;20206;-45
2022/11/29 07:53:02;;;;;;;9.80;7.60;;;;;;;6.99;100.00;98582.88;4203393;28;20211;-45
2022/11/29 07:55:04;;;;;;;8.27;7.68;;;;;;;7.01;100.00;98580.75;4204497;28;20242;-46
2022/11/29 07:57:06;;;;;;;7.85;7.10;;;;;;;7.00;100.00;98584.53;4205631;28;20795;-45
2022/11/29 07:59:17;;;;;;;7.65;6.25;;;;;;;6.95;100.00;98587.13;4199837;28;21104;-45
2022/11/29 08:01:27;;;;;;;8.68;7.72;;;;;;;6.91;100.00;98581.28;4203899;28;20302;-45
2022/11/29 08:03:29;;;;;;;13.57;10.07;;;;;;;6.93;100.00;98586.47;4202026;28;20214;-45
2022/11/29 08:05:30;;;;;;;8.25;7.45;;;;;;;7.00;100.00;98579.09;4202075;28;20589;-45
2022/11/29 08:07:37;;;;;;;9.18;8.43;;;;;;;7.02;100.00;98587.88;4198583;28;20206;-45
2022/11/29 08:09:38;;;;;;;8.75;7.95;;;;;;;6.96;100.00;98588.78;4201996;28;20211;-45
2022/11/29 08:11:40;;;;;;;9.70;8.70;;;;;;;6.96;100.00;98594.22;4201695;28;20208;-45
2022/11/29 08:13:42;;;;;;;8.75;8.00;;;;;;;7.06;100.00;98594.50;4204677;28;20215;-45
2022/11/29 08:15:45;;;;;;;9.40;8.40;;;;;;;7.02;100.00;98598.75;4203351;28;20235;-45
2022/11/29 08:17:47;;;;;;;8.35;7.65;;;;;;;6.99;100.00;98604.63;4223347;28;20668;-45
2022/11/29 08:19:49;;;;;;;8.32;7.63;;;;;;;6.92;100.00;98604.72;4205942;28;20207;-45
2022/11/29 08:21:51;;;;;;;9.48;8.57;;;;;;;6.89;100.00;98607.06;4209581;28;20298;-46
2022/11/29 08:23:53;;;;;;;8.75;7.85;;;;;;;7.00;100.00;98609.00;4205914;28;20280;-45
2022/11/29 08:25:59;;;;;;;8.93;8.02;;;;;;;6.96;100.00;98602.38;4207116;28;20313;-46
2022/11/29 08:28:02;;;;;;;7.60;7.00;;;;;;;6.98;100.00;98603.81;4208266;28;20207;-45
2022/11/29 08:30:05;;;;;;;8.35;7.65;;;;;;;7.03;100.00;98608.56;4208768;28;20693;-45
2022/11/29 08:32:07;;;;;;;6.95;6.35;;;;;;;7.00;100.00;98611.72;4206346;28;20256;-45
2022/11/29 08:34:10;;;;;;;7.68;7.07;;;;;;;7.01;100.00;98613.38;4206151;28;20199;-45
2022/11/29 08:36:14;;;;;;;6.97;6.38;;;;;;;7.06;100.00;98627.16;4212346;28;20206;-46
2022/11/29 08:38:16;;;;;;;7.50;6.80;;;;;;;7.04;100.00;98619.25;4208231;28;20221;-45
2022/11/29 08:40:18;;;;;;;7.93;7.13;;;;;;;7.08;100.00;98630.50;4203597;28;20314;-45
2022/11/29 08:42:20;;;;;;;6.53;5.85;;;;;;;7.09;100.00;98615.84;4203765;28;20242;-45
2022/11/29 08:44:22;;;;;;;7.07;6.47;;;;;;;7.11;100.00;98624.59;4205889;28;20253;-46
2022/11/29 08:47:34;;;;;;;7.88;6.22;;;;;;;7.14;100.00;98627.69;4201203;28;20215;-45
2022/11/29 08:48:46;;;;;;;5.97;5.38;;;;;;;7.16;100.00;98628.28;4202594;28;20657;-45
2022/11/29 08:50:49;;;;;;;8.15;6.65;;;;;;;7.21;100.00;98627.66;4206472;28;20230;-45
2022/11/29 08:55:13;;;;;;;6.80;6.30;;;;;;;7.19;100.00;98632.47;4206554;28;20783;-46
2022/11/29 08:57:15;;;;;;;7.22;6.53;;;;;;;7.23;100.00;98633.69;4201587;28;20221;-46
2022/11/29 08:59:43;;;;;;;7.18;6.47;;;;;;;7.28;100.00;98631.13;4191872;28;20203;-45
2022/11/29 09:01:46;;;;;;;7.40;6.80;;;;;;;7.34;100.00;98630.19;4202955;28;20223;-45
2022/11/29 09:03:59;;;;;;;7.05;6.45;;;;;;;7.35;100.00;98626.44;4200616;28;20204;-45
2022/11/29 09:06:13;;;;;;;7.70;7.00;;;;;;;7.36;100.00;98638.97;4201702;28;20226;-45
2022/11/29 09:08:15;;;;;;;8.23;7.50;;;;;;;7.37;100.00;98640.63;4198770;28;20199;-46
2022/11/29 09:10:17;;;;;;;7.68;7.05;;;;;;;7.35;100.00;98646.31;4199968;28;20210;-46
2022/11/29 09:12:19;;;;;;;8.68;7.88;;;;;;;7.32;100.00;98643.19;4188825;28;20223;-45
2022/11/29 09:14:21;;;;;;;7.50;6.82;;;;;;;7.37;100.00;98651.53;4192420;28;20219;-46
2022/11/29 09:16:26;;;;;;;8.60;7.80;;;;;;;7.50;100.00;98651.38;4199139;28;20198;-44
2022/11/29 09:18:31;;;;;;;10.07;9.27;;;;;;;7.49;100.00;98649.72;4204592;28;20214;-44
2022/11/29 09:20:33;;;;;;;8.50;7.60;;;;;;;7.51;100.00;98653.88;4190741;28;20596;-45
2022/11/29 09:22:35;;;;;;;13.90;6.93;;;;;;;7.60;100.00;98651.66;4203615;28;20211;-45
2022/11/29 09:24:38;;;;;;;10.27;7.68;;;;;;;7.65;100.00;98655.38;4203595;28;20300;-44
2022/11/29 09:26:41;;;;;;;8.65;7.75;;;;;;;7.69;100.00;98655.75;4202708;28;20217;-48
2022/11/29 09:28:46;;;;;;;7.72;6.95;;;;;;;7.61;100.00;98653.34;4207285;28;20585;-45
2022/11/29 09:30:49;;;;;;;7.03;6.40;;;;;;;7.63;100.00;98662.13;4203080;28;20270;-44
2022/11/29 09:32:51;;;;;;;7.00;6.43;;;;;;;7.68;100.00;98663.09;4201736;28;20207;-45
2022/11/29 09:34:53;;;;;;;6.65;6.05;;;;;;;7.74;100.00;98662.19;4199758;28;20223;-44
2022/11/29 09:36:55;;;;;;;7.15;6.55;;;;;;;7.74;100.00;98669.50;4204978;28;20301;-45
2022/11/29 09:39:01;;;;;;;6.97;5.90;;;;;;;7.82;100.00;98663.78;4182652;28;20207;-46
2022/11/29 09:41:13;;;;;;;6.03;5.43;;;;;;;7.81;100.00;98671.09;4203316;28;20233;-45
2022/11/29 09:43:45;;;;;;;6.63;6.03;;;;;;;7.81;100.00;98670.28;4205687;28;20198;-45
2022/11/29 09:45:53;;;;;;;8.68;6.80;;;;;;;7.86;100.00;98673.13;4206011;28;20309;-45
2022/11/29 09:48:16;;;;;;;6.32;5.75;;;;;;;7.90;100.00;98677.88;4195986;28;20787;-45
2022/11/29 09:50:22;;;;;;;5.65;5.15;;;;;;;7.95;100.00;98677.22;4203918;28;20206;-46
2022/11/29 09:52:46;;;;;;;6.50;5.90;;;;;;;7.97;100.00;98677.81;4208365;28;20208;-45
2022/11/29 09:55:06;;;;;;;6.32;5.82;;;;;;;8.01;100.00;98681.75;4208745;28;20296;-45
2022/11/29 09:57:08;;;;;;;5.75;5.25;;;;;;;8.03;100.00;98683.16;4203540;28;20297;-45
2022/11/29 09:59:28;;;;;;;5.75;4.70;;;;;;;8.08;100.00;98682.50;4202053;28;20257;-45
2022/11/29 10:01:40;;;;;;;6.80;6.15;;;;;;;8.06;100.00;98684.59;4217926;28;20214;-44
2022/11/29 10:03:50;;;;;;;5.93;5.43;;;;;;;8.16;100.00;98684.91;4205919;28;20202;-45
2022/11/29 10:05:59;;;;;;;5.63;5.13;;;;;;;8.11;100.00;98682.03;4200705;28;20272;-45
2022/11/29 10:08:07;;;;;;;5.25;4.78;;;;;;;8.13;100.00;98683.47;4203486;28;20618;-45
2022/11/29 10:10:26;;;;;;;6.32;5.75;;;;;;;8.15;100.00;98689.50;4204671;28;20245;-44
2022/11/29 10:12:38;;;;;;;11.07;10.18;;;;;;;8.31;100.00;98683.47;4219489;28;20668;-45
2022/11/29 10:15:00;;;;;;;12.25;11.15;;;;;;;8.23;100.00;98685.66;4220097;28;20274;-44
2022/11/29 10:17:25;;;;;;;8.30;7.63;;;;;;;8.25;100.00;98689.84;4222371;28;20227;-45
2022/11/29 10:19:36;;;;;;;9.25;8.00;;;;;;;8.35;100.00;98694.72;4155956;28;20243;-45
2022/11/29 10:21:43;;;;;;;7.38;6.68;;;;;;;8.29;100.00;98695.66;4197149;28;20223;-45
2022/11/29 10:23:53;;;;;;;7.50;6.78;;;;;;;8.32;100.00;98695.19;4202798;28;20210;-45
2022/11/29 10:25:56;;;;;;;7.60;6.80;;;;;;;8.31;100.00;98686.19;4202605;28;20622;-45
2022/11/29 10:28:08;;;;;;;7.47;6.78;;;;;;;8.31;100.00;98688.06;4208842;28;20211;-46
2022/11/29 10:30:17;;;;;;;8.80;6.63;;;;;;;8.34;100.00;98690.34;4190140;28;20206;-46